Time;durP1;ratioP1;P1;durP2;ratioP2;P2;SDS_P1;SDS_P2;PMS_P1;PMS_P2;Temp;Humidity;BMP_temperature;BMP_pressure;BME280_temperature;BME280_humidity;BME280_pressure;Samples;Min_cycle;Max_cycle;Signal;HPM_P1;HPM_P2
2022/06/08 00:00:31;;;;;;;;;;;14.40;99.90;;;13.40;100.00;95472.88;10500776;28;1846;-72
2022/06/08 00:05:35;;;;;;;;;;;14.40;99.90;;;13.37;100.00;95465.41;10492089;28;1983;-71
2022/06/08 00:10:38;;;;;;;;;;;14.30;99.90;;;13.40;100.00;95467.50;10499379;28;1787;-70
2022/06/08 00:15:42;;;;;;;;;;;14.40;99.90;;;13.46;100.00;95450.09;10496528;28;1775;-70
2022/06/08 00:20:46;;;;;;;;;;;14.40;99.90;;;13.53;100.00;95453.19;10495425;28;2017;-70
2022/06/08 00:25:49;;;;;;;;;;;14.40;99.90;;;13.60;100.00;95452.00;10499228;28;2015;-71
2022/06/08 00:30:52;;;;;;;;;;;14.50;99.90;;;13.60;100.00;95449.28;10482132;28;1879;-69
2022/06/08 00:35:56;;;;;;;;;;;14.50;99.90;;;13.69;100.00;95444.81;10475663;28;2187;-71
2022/06/08 00:40:59;;;;;;;;;;;14.50;99.90;;;13.71;100.00;95451.50;10495958;28;1910;-72
2022/06/08 00:46:03;;;;;;;;;;;14.60;99.90;;;13.78;100.00;95446.50;10497165;28;1991;-70
2022/06/08 00:51:07;;;;;;;;;;;14.60;99.90;;;13.82;100.00;95452.09;10479995;28;1987;-70
2022/06/08 00:56:09;;;;;;;;;;;14.70;99.90;;;13.86;100.00;95442.28;10526015;28;1962;-72
2022/06/08 01:01:13;;;;;;;;;;;14.70;99.90;;;13.93;100.00;95448.09;10521755;28;2068;-70
2022/06/08 01:06:16;;;;;;;;;;;14.80;99.90;;;14.01;100.00;95441.97;10503107;28;1911;-69
2022/06/08 01:11:20;;;;;;;;;;;14.80;99.90;;;13.99;100.00;95436.03;10480865;28;1894;-71
2022/06/08 01:16:24;;;;;;;;;;;14.90;99.90;;;14.04;100.00;95438.63;10506254;28;2036;-71
2022/06/08 01:21:28;;;;;;;;;;;14.90;99.90;;;14.12;100.00;95428.22;10507502;28;2028;-69
2022/06/08 01:26:39;;;;;;;;;;;14.90;99.90;;;14.12;100.00;95422.81;10485286;28;2115;-69
2022/06/08 01:31:47;;;;;;;;;;;15.00;99.90;;;14.09;100.00;95418.81;10489609;28;1884;-69
2022/06/08 01:36:50;;;;;;;;;;;15.00;99.90;;;14.10;100.00;95422.31;10488205;28;1888;-72
2022/06/08 01:41:53;;;;;;;;;;;14.90;99.90;;;14.15;100.00;95411.41;10485591;28;2293;-71
2022/06/08 01:46:56;;;;;;;;;;;14.90;99.90;;;14.15;100.00;95398.69;10509593;28;1951;-70
2022/06/08 01:52:00;;;;;;;;;;;15.00;99.90;;;14.11;100.00;95394.19;10499414;28;1957;-70
2022/06/08 01:57:03;;;;;;;;;;;15.00;99.90;;;14.11;100.00;95388.78;10492543;28;2083;-70
2022/06/08 02:02:06;;;;;;;;;;;15.00;99.90;;;14.10;100.00;95376.38;10501839;28;2039;-69
2022/06/08 02:07:10;;;;;;;;;;;14.90;99.90;;;14.15;100.00;95376.25;10498200;28;2121;-70
2022/06/08 02:12:14;;;;;;;;;;;15.00;99.90;;;14.16;100.00;95372.44;10511337;28;2029;-71
2022/06/08 02:17:17;;;;;;;;;;;15.00;99.90;;;14.10;100.00;95365.56;10484136;28;1982;-70
2022/06/08 02:22:20;;;;;;;;;;;15.00;99.90;;;14.10;100.00;95362.88;10505781;28;1946;-69
2022/06/08 02:27:23;;;;;;;;;;;15.00;99.90;;;14.10;100.00;95365.56;10489455;28;2099;-70
2022/06/08 02:37:47;;;;;;;;;;;14.90;99.90;;;14.01;100.00;95360.09;10522893;28;2157;-69
2022/06/08 02:42:51;;;;;;;;;;;15.00;99.90;;;13.95;100.00;95367.50;10499066;28;2147;-69
2022/06/08 02:47:55;;;;;;;;;;;14.80;99.90;;;13.88;100.00;95369.84;10494826;28;2011;-69
2022/06/08 02:52:57;;;;;;;;;;;14.80;99.90;;;13.82;100.00;95364.84;10508609;28;1975;-69
2022/06/08 02:58:00;;;;;;;;;;;14.70;99.90;;;13.76;100.00;95359.56;10484998;28;1986;-70
2022/06/08 03:03:03;;;;;;;;;;;14.70;99.90;;;13.53;100.00;95366.78;10502309;28;2030;-73
2022/06/08 03:08:06;;;;;;;;;;;14.60;99.90;;;13.42;100.00;95368.13;10481575;28;1961;-71
2022/06/08 03:13:09;;;;;;;;;;;14.40;99.90;;;13.43;100.00;95358.91;10501940;28;1950;-70
2022/06/08 03:18:12;;;;;;;;;;;14.40;99.90;;;13.46;100.00;95363.69;10497219;28;2323;-71
2022/06/08 03:23:15;;;;;;;;;;;14.40;99.90;;;13.39;100.00;95368.69;10492137;28;1960;-71
2022/06/08 03:28:18;;;;;;;;;;;14.40;99.90;;;13.45;100.00;95358.59;10502655;28;2100;-70
2022/06/08 03:33:21;;;;;;;;;;;14.40;99.90;;;13.53;100.00;95361.38;10487699;28;2007;-70
2022/06/08 03:38:23;;;;;;;;;;;14.40;99.90;;;13.56;100.00;95373.50;10499203;28;1979;-72
2022/06/08 03:43:27;;;;;;;;;;;14.50;99.90;;;13.57;100.00;95368.91;10471515;28;1997;-70
2022/06/08 03:48:30;;;;;;;;;;;14.50;99.90;;;13.59;100.00;95361.28;10477513;28;1964;-70
2022/06/08 03:53:34;;;;;;;;;;;14.50;99.90;;;13.57;100.00;95363.50;10497461;28;1975;-71
2022/06/08 03:58:36;;;;;;;;;;;14.50;99.90;;;13.61;100.00;95370.66;10498968;28;1997;-69
2022/06/08 04:03:39;;;;;;;;;;;14.50;99.90;;;13.72;100.00;95360.47;10474599;28;1913;-71
2022/06/08 04:08:42;;;;;;;;;;;14.60;99.90;;;14.11;100.00;95364.44;10496516;28;1963;-71
2022/06/08 04:13:45;;;;;;;;;;;14.70;99.90;;;14.46;100.00;95358.25;10481830;28;1936;-70
2022/06/08 04:18:54;;;;;;;;;;;15.00;99.90;;;14.52;100.00;95356.22;10499272;28;1935;-71
2022/06/08 04:23:57;;;;;;;;;;;15.20;99.90;;;14.77;100.00;95357.47;10494492;28;1920;-69
2022/06/08 04:29:01;;;;;;;;;;;15.40;99.90;;;15.16;99.09;95358.63;10477003;28;1898;-72
2022/06/08 04:34:03;;;;;;;;;;;15.70;99.90;;;15.39;96.67;95357.41;10494613;28;1924;-71
2022/06/08 04:39:07;;;;;;;;;;;15.90;99.90;;;15.57;94.54;95352.84;10495842;28;2033;-71
2022/06/08 04:44:10;;;;;;;;;;;16.10;99.90;;;15.82;92.52;95352.13;10482342;28;1980;-72
2022/06/08 04:49:13;;;;;;;;;;;16.40;99.90;;;15.95;89.76;95342.25;10479814;28;1956;-71
2022/06/08 04:54:16;;;;;;;;;;;16.60;99.90;;;16.30;87.85;95334.16;10502523;28;2422;-71
2022/06/08 04:59:19;;;;;;;;;;;16.90;99.90;;;16.58;85.70;95332.66;10480157;28;2026;-70
2022/06/08 05:04:22;;;;;;;;;;;17.10;99.90;;;16.95;84.88;95322.22;10514076;28;1951;-71
2022/06/08 05:09:25;;;;;;;;;;;17.40;99.90;;;17.20;82.13;95324.03;10505101;28;2062;-72
2022/06/08 05:14:28;;;;;;;;;;;17.70;99.90;;;17.33;81.17;95321.44;10483949;28;1915;-71
2022/06/08 05:19:31;;;;;;;;;;;17.80;99.90;;;17.66;78.65;95313.41;10504606;28;2000;-70
2022/06/08 05:24:34;;;;;;;;;;;18.30;99.90;;;17.84;76.68;95317.63;10495643;28;2010;-72
2022/06/08 05:29:37;;;;;;;;;;;18.40;99.90;;;18.15;74.92;95319.97;10498244;28;1991;-71
2022/06/08 05:34:40;;;;;;;;;;;18.50;99.90;;;18.12;74.22;95317.09;10489170;28;1921;-73
2022/06/08 05:39:46;;;;;;;;;;;18.70;99.90;;;18.22;72.95;95312.06;10505811;28;2082;-73
2022/06/08 05:44:49;;;;;;;;;;;18.70;99.90;;;18.41;73.57;95308.06;10490160;28;2003;-72
2022/06/08 05:49:52;;;;;;;;;;;18.80;99.90;;;18.70;70.83;95307.13;10505831;28;1958;-72
2022/06/08 05:54:55;;;;;;;;;;;19.10;99.90;;;18.66;70.27;95303.50;10499419;28;1975;-73
2022/06/08 05:59:58;;;;;;;;;;;19.20;99.90;;;18.68;70.20;95301.25;10506757;28;1856;-73
2022/06/08 06:05:01;;;;;;;;;;;19.20;99.90;;;19.21;68.83;95310.41;10505339;28;2019;-72
2022/06/08 06:10:05;;;;;;;;;;;19.30;99.90;;;19.40;67.65;95308.72;10489502;28;2010;-73
2022/06/08 06:15:08;;;;;;;;;;;19.70;99.90;;;19.37;65.54;95300.44;10486254;28;2003;-72
2022/06/08 06:20:11;;;;;;;;;;;19.90;99.90;;;19.34;63.28;95315.53;10484887;28;1992;-72
2022/06/08 06:25:14;;;;;;;;;;;19.90;99.90;;;19.42;64.98;95298.28;10496909;28;1975;-74
2022/06/08 06:30:17;;;;;;;;;;;19.80;99.90;;;19.32;63.23;95297.91;10508105;28;2403;-73
2022/06/08 06:35:21;;;;;;;;;;;20.00;99.90;;;19.76;63.97;95301.66;10502578;28;1985;-75
2022/06/08 06:40:24;;;;;;;;;;;20.10;99.90;;;19.28;66.03;95295.09;10489796;28;1957;-75
2022/06/08 06:45:27;;;;;;;;;;;19.90;99.90;;;19.48;64.45;95284.41;10499184;28;1932;-75
2022/06/08 06:50:31;;;;;;;;;;;20.00;99.90;;;20.20;60.87;95283.47;10481516;28;1876;-75
2022/06/08 06:55:34;;;;;;;;;;;20.50;99.90;;;20.15;62.52;95282.94;10504961;28;1932;-74
2022/06/08 07:00:37;;;;;;;;;;;20.80;99.90;;;19.74;59.91;95282.13;10512684;28;1924;-75
2022/06/08 07:05:40;;;;;;;;;;;20.80;99.90;;;20.14;61.40;95279.41;10480764;28;1923;-75
2022/06/08 07:11:32;;;;;;;;;;;20.80;99.90;;;20.73;59.75;95264.25;10498332;28;1908;-75
2022/06/08 07:16:07;;;;;;;;;;;21.20;99.90;;;20.63;56.88;95270.25;10490981;28;1967;-72
2022/06/08 07:21:10;;;;;;;;;;;21.30;99.90;;;20.52;58.67;95272.69;10485330;28;1903;-72
2022/06/08 07:26:14;;;;;;;;;;;21.40;99.90;;;20.57;59.30;95269.72;10503038;28;1939;-74
2022/06/08 07:31:17;;;;;;;;;;;21.20;99.90;;;21.38;55.63;95255.75;10507512;28;2296;-72
2022/06/08 07:36:20;;;;;;;;;;;21.50;99.90;;;20.99;55.82;95256.38;10513432;28;1868;-75
2022/06/08 07:41:23;;;;;;;;;;;21.70;99.90;;;20.50;58.53;95243.00;10485968;28;2291;-77
2022/06/08 07:46:26;;;;;;;;;;;21.30;99.90;;;20.33;56.55;95237.03;10484350;28;1918;-76
2022/06/08 07:51:31;;;;;;;;;;;21.00;99.90;;;21.34;56.97;95233.78;10507132;28;1888;-76
2022/06/08 07:56:36;;;;;;;;;;;21.60;99.90;;;21.53;53.45;95236.56;10492398;28;1900;-77
2022/06/08 08:01:40;;;;;;;;;;;22.20;99.90;;;22.30;51.27;95227.66;10488629;28;1955;-75
2022/06/08 08:06:43;;;;;;;;;;;22.80;99.90;;;22.88;48.17;95224.03;10502751;28;1919;-74
2022/06/08 08:11:46;;;;;;;;;;;23.40;99.90;;;23.64;46.89;95213.09;10479357;28;1979;-72
2022/06/08 08:16:49;;;;;;;;;;;23.80;99.90;;;23.40;45.10;95211.53;10478834;28;1995;-73
2022/06/08 08:21:52;;;;;;;;;;;24.10;99.90;;;22.56;47.64;95201.53;10487274;28;2011;-72
2022/06/08 08:26:55;;;;;;;;;;;23.80;99.90;;;21.55;48.63;95203.41;10483716;28;2119;-73
2022/06/08 08:31:58;;;;;;;;;;;22.90;99.90;;;21.21;51.66;95205.75;10486733;28;1915;-73
2022/06/08 08:37:01;;;;;;;;;;;22.10;99.90;;;21.05;51.82;95196.75;10532046;28;1948;-73
2022/06/08 08:42:22;;;;;;;;;;;21.90;99.90;;;21.20;51.38;95187.75;10528928;28;2045;-76
2022/06/08 08:47:25;;;;;;;;;;;21.80;99.90;;;21.24;49.53;95187.81;10504345;28;1975;-75
2022/06/08 08:52:28;;;;;;;;;;;21.90;99.90;;;21.29;51.24;95184.84;10506721;28;1946;-74
2022/06/08 08:57:32;;;;;;;;;;;21.90;99.90;;;21.14;53.05;95182.94;10498988;28;1977;-75
2022/06/08 09:07:58;;;;;;;;;;;21.70;99.90;;;21.30;52.29;95172.75;10499612;28;1978;-74
2022/06/08 09:13:01;;;;;;;;;;;21.90;99.90;;;21.19;53.90;95169.00;10555480;28;2021;-76
2022/06/08 09:18:05;;;;;;;;;;;22.00;99.90;;;21.44;50.83;95153.97;10513990;28;1982;-77
2022/06/08 09:23:09;;;;;;;;;;;21.90;99.90;;;21.66;52.91;95151.66;10495713;28;1973;-76
2022/06/08 09:28:11;;;;;;;;;;;22.10;99.90;;;20.80;53.75;95133.34;10504996;28;1950;-77
2022/06/08 09:33:14;;;;;;;;;;;21.80;99.90;;;20.55;53.57;95132.75;10510019;28;2347;-77
2022/06/08 09:38:18;;;;;;;;;;;21.80;99.90;;;20.57;54.11;95121.47;10486897;28;2020;-77
2022/06/08 09:43:21;;;;;;;;;;;21.50;99.90;;;21.04;51.69;95116.72;10513255;28;1971;-78
2022/06/08 09:53:44;;;;;;;;;;;21.70;99.90;;;21.23;52.56;95109.72;10507660;28;1915;-79
2022/06/08 09:58:48;;;;;;;;;;;21.80;99.90;;;21.64;48.68;95096.53;10499774;28;2504;-77
2022/06/08 10:03:52;;;;;;;;;;;22.10;99.90;;;21.86;48.69;95093.84;10486790;28;1984;-77
2022/06/08 10:08:55;;;;;;;;;;;22.30;99.90;;;21.65;47.42;95092.66;10487430;28;2244;-76
2022/06/08 10:13:58;;;;;;;;;;;22.40;99.90;;;21.93;47.45;95084.19;10509350;28;1975;-76
2022/06/08 10:19:05;;;;;;;;;;;22.30;99.90;;;21.83;48.99;95077.38;10507665;28;1963;-76
2022/06/08 10:24:08;;;;;;;;;;;22.40;99.90;;;22.16;47.95;95060.41;10497845;28;1975;-74
2022/06/08 10:29:11;;;;;;;;;;;22.70;99.90;;;22.28;48.10;95067.66;10513412;28;1975;-75
2022/06/08 10:34:14;;;;;;;;;;;22.70;99.90;;;22.33;45.57;95062.66;10507467;28;1908;-74
2022/06/08 10:39:18;;;;;;;;;;;22.90;99.90;;;21.58;48.04;95053.06;10492003;28;1901;-75
2022/06/08 10:44:21;;;;;;;;;;;22.60;99.90;;;21.69;46.80;95036.84;10507476;28;1923;-74
2022/06/08 10:49:24;;;;;;;;;;;22.70;99.90;;;22.04;45.66;95042.19;10502919;28;1983;-74
2022/06/08 10:59:47;;;;;;;;;;;23.20;99.90;;;22.05;44.71;95032.81;10500266;28;1994;-74
2022/06/08 11:04:51;;;;;;;;;;;22.80;99.90;;;22.94;43.56;95028.00;10508357;28;1999;-73
2022/06/08 11:09:54;;;;;;;;;;;23.00;99.90;;;24.59;39.75;95012.13;10498252;28;1971;-73
2022/06/08 11:14:57;;;;;;;;;;;25.20;99.90;;;25.47;38.82;95013.03;10511413;28;1994;-73
2022/06/08 11:20:01;;;;;;;;;;;26.70;99.90;;;25.48;38.42;95006.34;10509324;28;2001;-75
2022/06/08 11:25:04;;;;;;;;;;;27.00;99.90;;;24.97;37.83;95004.50;10503568;28;2086;-75
2022/06/08 11:30:08;;;;;;;;;;;26.30;99.90;;;23.78;40.50;94991.00;10509512;28;2058;-73
2022/06/08 11:35:12;;;;;;;;;;;25.30;99.90;;;23.34;41.67;94972.47;10505745;28;1975;-75
2022/06/08 11:40:15;;;;;;;;;;;24.50;99.90;;;23.67;42.01;94968.97;10486360;28;1988;-74
2022/06/08 11:45:18;;;;;;;;;;;24.40;99.90;;;23.14;43.14;94963.63;10467927;28;2127;-76
2022/06/08 11:50:21;;;;;;;;;;;24.10;99.90;;;24.31;41.08;94952.25;10499128;28;2039;-75
2022/06/08 11:55:24;;;;;;;;;;;24.30;99.90;;;24.87;40.12;94951.03;10490877;28;1860;-75
2022/06/08 12:00:27;;;;;;;;;;;25.30;99.90;;;24.21;41.64;94934.50;10504691;28;1846;-76
2022/06/08 12:05:32;;;;;;;;;;;25.40;99.90;;;23.06;43.24;94942.78;10485711;28;1918;-77
2022/06/08 12:10:35;;;;;;;;;;;24.60;99.90;;;23.46;43.05;94936.56;10490130;28;1868;-75
2022/06/08 12:15:38;;;;;;;;;;;24.30;99.90;;;23.70;41.48;94929.00;10474833;28;1815;-76
2022/06/08 12:20:41;;;;;;;;;;;24.50;99.90;;;23.95;41.27;94921.78;10489234;28;2162;-77
2022/06/08 12:25:44;;;;;;;;;;;24.60;99.90;;;23.30;42.54;94911.34;10500092;28;1909;-77
2022/06/08 12:30:47;;;;;;;;;;;24.70;99.90;;;23.45;42.80;94904.03;10507351;28;1826;-78
2022/06/08 12:35:53;;;;;;;;;;;24.50;99.90;;;23.09;45.42;94900.13;10489990;28;1876;-77
2022/06/08 12:40:56;;;;;;;;;;;24.10;99.90;;;23.20;43.73;94895.56;10486719;28;1867;-75
2022/06/08 12:45:59;;;;;;;;;;;24.10;99.90;;;22.83;44.76;94892.75;10503756;28;1909;-77
2022/06/08 12:51:03;;;;;;;;;;;23.90;99.90;;;23.09;44.61;94883.69;10494913;28;1826;-77
2022/06/08 12:56:14;;;;;;;;;;;23.70;99.90;;;23.26;43.45;94879.56;10497961;28;1802;-77
2022/06/08 13:01:18;;;;;;;;;;;24.00;99.90;;;22.69;46.21;94874.19;10503828;28;1930;-78
2022/06/08 13:06:21;;;;;;;;;;;23.70;99.90;;;22.66;45.30;94873.00;10493896;28;1921;-78
2022/06/08 13:11:24;;;;;;;;;;;23.40;99.90;;;22.74;44.91;94873.09;10512465;28;1935;-75
2022/06/08 13:16:27;;;;;;;;;;;23.50;99.90;;;23.18;42.78;94856.78;10531574;28;1856;-76
2022/06/08 13:21:30;;;;;;;;;;;24.00;99.90;;;24.00;41.82;94857.50;10513842;28;2233;-77
2022/06/08 13:26:34;;;;;;;;;;;24.50;99.90;;;23.78;40.96;94859.28;10494755;28;1975;-78
2022/06/08 13:31:37;;;;;;;;;;;24.80;99.90;;;24.31;39.16;94858.09;10492985;28;1996;-77
2022/06/08 13:36:40;;;;;;;;;;;25.20;99.90;;;24.36;40.08;94849.50;10484442;28;1917;-77
2022/06/08 13:41:44;;;;;;;;;;;25.30;99.90;;;23.96;40.03;94851.19;10504739;28;2018;-76
2022/06/08 13:46:48;;;;;;;;;;;25.20;99.90;;;24.40;38.63;94851.09;10491028;28;1921;-77
2022/06/08 13:51:57;;;;;;;;;;;25.20;99.90;;;24.87;40.37;94841.09;10480425;28;1936;-77
2022/06/08 13:57:00;;;;;;;;;;;25.50;99.90;;;24.52;38.25;94848.03;10513454;28;1943;-77
2022/06/08 14:02:04;;;;;;;;;;;25.50;99.90;;;24.26;39.19;94827.06;10496402;28;1892;-77
2022/06/08 14:17:49;;;;;;;;;;;25.20;99.90;;;24.83;40.74;94817.53;10497684;28;1863;-79
2022/06/08 14:22:53;;;;;;;;;;;25.30;99.90;;;24.20;42.06;94820.38;10510026;28;1893;-77
2022/06/08 14:27:56;;;;;;;;;;;25.20;99.90;;;24.67;40.69;94815.88;10510463;28;2175;-78
2022/06/08 14:33:00;;;;;;;;;;;25.30;99.90;;;24.96;41.11;94813.25;10490068;28;1862;-77
2022/06/08 14:38:06;;;;;;;;;;;25.60;99.90;;;23.98;41.25;94813.16;10510430;28;1950;-78
2022/06/08 14:43:08;;;;;;;;;;;25.40;99.90;;;23.98;41.28;94816.72;10514781;28;2019;-77
2022/06/08 14:48:11;;;;;;;;;;;25.20;99.90;;;24.00;41.12;94799.84;10530468;28;2050;-77
2022/06/08 14:53:14;;;;;;;;;;;25.00;99.90;;;23.25;42.87;94804.75;10536436;28;1953;-78
2022/06/08 14:58:20;;;;;;;;;;;24.80;99.90;;;24.06;42.21;94792.06;10499304;28;1877;-77
2022/06/08 15:03:23;;;;;;;;;;;24.50;99.90;;;25.22;38.08;94790.94;10505478;28;1901;-76
2022/06/08 15:08:26;;;;;;;;;;;25.50;99.90;;;25.26;38.28;94788.97;10544689;28;1891;-76
2022/06/08 15:13:29;;;;;;;;;;;26.00;99.90;;;24.72;39.04;94801.78;10502276;28;1958;-76
2022/06/08 15:18:32;;;;;;;;;;;26.10;99.90;;;24.98;39.86;94792.41;10529422;28;2007;-75
2022/06/08 15:23:36;;;;;;;;;;;26.00;99.90;;;24.00;42.46;94783.38;10513285;28;1840;-76
2022/06/08 15:28:40;;;;;;;;;;;25.50;99.90;;;24.15;42.00;94784.25;10520536;28;1894;-76
2022/06/08 15:33:55;;;;;;;;;;;25.10;99.90;;;24.44;41.84;94776.97;10534597;28;1854;-76
2022/06/08 15:38:58;;;;;;;;;;;25.20;99.90;;;24.46;42.26;94774.63;10542691;28;1865;-76
2022/06/08 15:44:03;;;;;;;;;;;25.20;99.90;;;24.51;41.02;94768.75;10514943;28;1893;-76
2022/06/08 15:49:07;;;;;;;;;;;25.20;99.90;;;23.68;42.87;94783.19;10498587;28;1886;-72
2022/06/08 15:54:10;;;;;;;;;;;25.00;99.90;;;23.20;42.93;94780.41;10489181;28;1950;-73
2022/06/08 15:59:14;;;;;;;;;;;24.40;99.90;;;23.49;43.35;94778.72;10515193;28;1748;-73
2022/06/08 16:04:18;;;;;;;;;;;24.20;99.90;;;24.16;41.89;94781.09;10502297;28;1814;-72
2022/06/08 16:09:22;;;;;;;;;;;24.50;99.90;;;23.91;43.00;94782.94;10507485;28;1984;-73
2022/06/08 16:14:25;;;;;;;;;;;24.60;99.90;;;23.91;42.62;94789.19;10502182;28;1873;-72
2022/06/08 16:19:29;;;;;;;;;;;24.50;99.90;;;23.31;43.95;94795.00;10505555;28;1837;-73
2022/06/08 16:24:32;;;;;;;;;;;24.50;99.90;;;22.94;44.82;94800.53;10486024;28;1816;-73
2022/06/08 16:29:35;;;;;;;;;;;24.10;99.90;;;22.77;44.87;94793.66;10509848;28;1984;-73
2022/06/08 16:34:40;;;;;;;;;;;23.90;99.90;;;23.01;45.42;94800.59;10502104;28;1615;-72
2022/06/08 16:39:43;;;;;;;;;;;23.70;99.90;;;22.71;47.26;94802.59;10488026;28;1921;-75
2022/06/08 16:44:46;;;;;;;;;;;23.60;99.90;;;22.57;47.73;94806.75;10500641;28;1825;-75
2022/06/08 16:49:50;;;;;;;;;;;23.50;99.90;;;22.19;48.43;94807.06;10509607;28;1953;-74
2022/06/08 16:54:52;;;;;;;;;;;23.30;99.90;;;22.46;47.08;94807.78;10501139;28;1800;-75
2022/06/08 16:59:57;;;;;;;;;;;23.20;99.90;;;22.86;47.08;94815.31;10506449;28;1716;-75
2022/06/08 17:05:06;;;;;;;;;;;23.30;99.90;;;22.98;46.18;94808.81;10484640;28;1914;-75
2022/06/08 17:10:09;;;;;;;;;;;23.60;99.90;;;22.80;46.03;94811.31;10508920;28;2244;-76
2022/06/08 17:15:13;;;;;;;;;;;23.50;99.90;;;22.81;45.57;94813.69;10510710;28;1958;-74
2022/06/08 17:20:17;;;;;;;;;;;23.50;99.90;;;22.74;45.99;94812.81;10528678;28;1819;-72
2022/06/08 17:25:20;;;;;;;;;;;23.50;99.90;;;22.54;45.79;94818.47;10502706;28;2351;-74
2022/06/08 17:30:24;;;;;;;;;;;23.30;99.90;;;22.26;44.06;94820.84;10510516;28;1838;-74
2022/06/08 17:35:28;;;;;;;;;;;23.10;99.90;;;21.99;45.36;94828.25;10508616;28;1879;-75
2022/06/08 17:40:31;;;;;;;;;;;22.80;99.90;;;21.91;44.76;94827.38;10517526;28;1904;-74
2022/06/08 17:45:33;;;;;;;;;;;22.70;99.90;;;21.87;44.50;94840.19;10514072;28;1906;-77
2022/06/08 17:50:36;;;;;;;;;;;22.60;99.90;;;21.62;45.65;94841.75;10511614;28;1768;-73
2022/06/08 17:55:39;;;;;;;;;;;22.40;99.90;;;21.37;46.34;94853.06;10496546;28;1833;-73
2022/06/08 18:00:43;;;;;;;;;;;22.20;99.90;;;21.11;46.91;94872.09;10486334;28;1863;-70
2022/06/08 18:05:46;;;;;;;;;;;22.00;99.90;;;20.80;46.91;94865.66;10488463;28;1926;-72
2022/06/08 18:10:50;;;;;;;;;;;21.70;99.90;;;20.50;48.07;94885.38;10513185;28;1859;-70
2022/06/08 18:15:53;;;;;;;;;;;21.40;99.90;;;20.30;48.99;94888.41;10485241;28;1980;-72
2022/06/08 18:20:57;;;;;;;;;;;21.20;99.90;;;20.14;49.45;94908.34;10498947;28;1849;-74
2022/06/08 18:26:02;;;;;;;;;;;21.00;99.90;;;19.77;50.34;94918.75;10502924;28;1981;-74
2022/06/08 18:31:07;;;;;;;;;;;20.70;99.90;;;19.56;51.45;94919.00;10481806;28;1937;-73
2022/06/08 18:36:11;;;;;;;;;;;20.40;99.90;;;18.94;54.61;94944.19;10500950;28;1760;-73
2022/06/08 18:41:14;;;;;;;;;;;20.00;99.90;;;18.57;56.43;94957.88;10497184;28;1895;-73
2022/06/08 18:46:19;;;;;;;;;;;19.50;99.90;;;18.30;59.07;94978.47;10482505;28;2189;-75
2022/06/08 18:51:22;;;;;;;;;;;19.30;99.90;;;17.97;59.55;94978.59;10498501;28;1834;-73
2022/06/08 18:56:26;;;;;;;;;;;19.00;99.90;;;17.70;63.04;94980.03;10484926;28;1834;-72
2022/06/08 19:01:28;;;;;;;;;;;18.70;99.90;;;17.29;64.94;94987.94;10486388;28;1874;-72
2022/06/08 19:06:33;;;;;;;;;;;18.30;99.90;;;16.46;74.10;94996.13;10478720;28;1913;-71
2022/06/08 19:11:38;;;;;;;;;;;17.70;99.90;;;16.15;77.47;95002.69;10502774;28;1880;-71
2022/06/08 19:16:43;;;;;;;;;;;17.30;99.90;;;16.10;72.87;95011.03;10506729;28;1852;-71
2022/06/08 19:21:46;;;;;;;;;;;17.00;99.90;;;16.19;71.20;95017.19;10481635;28;2542;-71
2022/06/08 19:26:49;;;;;;;;;;;17.00;99.90;;;16.12;69.60;95018.84;10502170;28;1918;-71
2022/06/08 19:31:52;;;;;;;;;;;16.90;99.90;;;16.18;69.44;95034.59;10486004;28;1819;-71
2022/06/08 19:36:55;;;;;;;;;;;16.90;99.90;;;16.07;69.65;95038.78;10495398;28;1903;-71
2022/06/08 19:41:58;;;;;;;;;;;16.90;99.90;;;16.10;73.65;95051.69;10480634;28;1889;-70
2022/06/08 19:47:01;;;;;;;;;;;16.80;99.90;;;15.68;81.55;95051.53;10497843;28;1981;-71
2022/06/08 19:52:05;;;;;;;;;;;;;;;15.52;91.43;95065.88;10501425;28;1595;-71
2022/06/08 19:57:08;;;;;;;;;;;;;;;15.09;95.54;95074.84;10501008;28;1791;-71
2022/06/08 20:02:11;;;;;;;;;;;;;;;14.70;100.00;95078.50;10502184;28;1830;-70
2022/06/08 20:07:16;;;;;;;;;;;;;;;14.12;100.00;95079.56;10509231;28;1981;-71
2022/06/08 20:12:20;;;;;;;;;;;;;;;13.91;100.00;95088.22;10515959;28;1823;-72
2022/06/08 20:17:24;;;;;;;;;;;;;;;13.74;100.00;95101.63;10516206;28;1858;-71
2022/06/08 20:22:27;;;;;;;;;;;;;;;13.72;100.00;95104.66;10512531;28;1850;-71
2022/06/08 20:27:31;;;;;;;;;;;;;;;13.63;100.00;95105.72;10502528;28;1979;-70
2022/06/08 20:32:34;;;;;;;;;;;;;;;13.58;100.00;95119.34;10496006;28;1771;-71
2022/06/08 20:37:37;;;;;;;;;;;;;;;13.63;100.00;95122.72;10501413;28;1882;-70
2022/06/08 20:42:40;;;;;;;;;;;14.40;99.90;;;13.59;100.00;95123.63;10480423;28;1760;-71
2022/06/08 20:47:43;;;;;;;;;;;14.30;99.90;;;13.55;100.00;95130.75;10499098;28;1993;-71
2022/06/08 20:52:53;;;;;;;;;;;14.40;99.90;;;13.45;100.00;95146.09;10497541;28;1849;-70
2022/06/08 20:57:56;;;;;;;;;;;;;;;13.56;100.00;95140.47;10479166;28;1853;-72
2022/06/08 21:03:00;;;;;;;;;;;14.30;99.90;;;13.50;100.00;95146.00;10497489;28;1826;-70
2022/06/08 21:08:03;;;;;;;;;;;14.30;99.90;;;13.37;100.00;95149.56;10499185;28;1918;-71
2022/06/08 21:13:06;;;;;;;;;;;14.20;99.90;;;13.37;100.00;95152.25;10490924;28;1857;-70
2022/06/08 21:18:09;;;;;;;;;;;14.10;99.90;;;13.43;100.00;95158.31;10507725;28;1894;-72
2022/06/08 21:23:12;;;;;;;;;;;14.20;99.90;;;13.35;100.00;95157.13;10501078;28;1961;-73
2022/06/08 21:28:16;;;;;;;;;;;14.10;99.90;;;13.32;100.00;95168.56;10537397;28;1965;-71
2022/06/08 21:33:19;;;;;;;;;;;14.20;99.90;;;13.34;100.00;95162.84;10501059;28;1741;-72
2022/06/08 21:38:22;;;;;;;;;;;14.10;99.90;;;13.31;100.00;95164.25;10507097;28;1815;-73
2022/06/08 21:43:25;;;;;;;;;;;14.10;99.90;;;13.33;100.00;95159.34;10507704;28;1815;-73
2022/06/08 21:48:28;;;;;;;;;;;14.00;99.90;;;13.31;100.00;95150.78;10505080;28;1910;-74
2022/06/08 21:53:31;;;;;;;;;;;14.10;99.90;;;13.36;100.00;95147.97;10486850;28;1709;-73
2022/06/08 21:58:34;;;;;;;;;;;14.10;99.90;;;13.33;100.00;95143.16;10510484;28;1785;-74
2022/06/08 22:03:37;;;;;;;;;;;;;;;13.27;100.00;95132.78;10507848;28;1798;-73
2022/06/08 22:08:47;;;;;;;;;;;14.10;99.90;;;13.30;100.00;95132.19;10507143;28;1984;-73
2022/06/08 22:13:50;;;;;;;;;;;14.10;99.90;;;13.29;100.00;95133.25;10504103;28;1861;-73
2022/06/08 22:18:53;;;;;;;;;;;14.10;99.90;;;13.21;100.00;95132.91;10504901;28;1859;-73
2022/06/08 22:23:56;;;;;;;;;;;14.10;99.90;;;13.25;100.00;95138.50;10504579;28;1736;-73
2022/06/08 22:29:05;;;;;;;;;;;14.00;99.90;;;13.24;100.00;95126.09;10505466;28;1918;-73
2022/06/08 22:34:08;;;;;;;;;;;14.00;99.90;;;13.16;100.00;95126.78;10508446;28;1808;-73
2022/06/08 22:39:12;;;;;;;;;;;13.90;99.90;;;13.23;100.00;95121.78;10506157;28;1754;-74
2022/06/08 22:44:15;;;;;;;;;;;14.00;99.90;;;13.22;100.00;95122.91;10503672;28;1877;-73
2022/06/08 22:49:18;;;;;;;;;;;13.90;99.90;;;13.18;100.00;95116.50;10506435;28;1914;-72
2022/06/08 22:54:21;;;;;;;;;;;14.00;99.90;;;13.13;100.00;95117.41;10503290;28;1747;-72
2022/06/08 22:59:24;;;;;;;;;;;13.90;99.90;;;13.17;100.00;95106.81;10501828;28;1880;-73
2022/06/08 23:04:28;;;;;;;;;;;13.90;99.90;;;13.11;100.00;95102.63;10505247;28;1760;-73
2022/06/08 23:09:32;;;;;;;;;;;13.80;99.90;;;13.07;100.00;95101.66;10481139;28;1914;-73
2022/06/08 23:14:36;;;;;;;;;;;13.90;99.90;;;13.00;100.00;95099.38;10493970;28;1858;-73
2022/06/08 23:24:59;;;;;;;;;;;13.80;99.90;;;13.04;100.00;95099.53;10498319;28;1810;-73
2022/06/08 23:30:02;;;;;;;;;;;13.80;99.90;;;12.96;100.00;95096.47;10504350;28;1909;-73
2022/06/08 23:35:05;;;;;;;;;;;13.80;99.90;;;12.98;100.00;95088.09;10506450;28;1901;-73
2022/06/08 23:40:08;;;;;;;;;;;13.70;99.90;;;12.97;100.00;95084.56;10501011;28;1834;-73
2022/06/08 23:45:11;;;;;;;;;;;13.70;99.90;;;12.95;100.00;95094.88;10499428;28;1552;-73
2022/06/08 23:55:35;;;;;;;;;;;13.70;99.90;;;12.94;100.00;95093.28;10501686;28;2115;-73
